sensor_id;sensor_type;location;lat;lon;timestamp;pressure;altitude;pressure_sealevel;temperature
76007;BMP280;64699;0.000;0.000;2022-10-26T00:02:00;100733.81;;;23.02
76007;BMP280;64699;0.000;0.000;2022-10-26T00:04:25;100729.03;;;23.03
76007;BMP280;64699;0.000;0.000;2022-10-26T00:06:50;100733.28;;;23.04
76007;BMP280;64699;0.000;0.000;2022-10-26T00:09:15;100728.78;;;23.01
76007;BMP280;64699;0.000;0.000;2022-10-26T00:11:41;100726.97;;;23.03
76007;BMP280;64699;0.000;0.000;2022-10-26T00:14:09;100737.13;;;23.01
76007;BMP280;64699;0.000;0.000;2022-10-26T00:16:34;100738.59;;;23.02
76007;BMP280;64699;0.000;0.000;2022-10-26T00:18:59;100736.03;;;23.04
76007;BMP280;64699;0.000;0.000;2022-10-26T00:21:24;100741.19;;;23.00
76007;BMP280;64699;0.000;0.000;2022-10-26T00:23:49;100744.72;;;23.00
76007;BMP280;64699;0.000;0.000;2022-10-26T00:26:15;100748.03;;;22.99
76007;BMP280;64699;0.000;0.000;2022-10-26T00:28:40;100752.81;;;22.98
76007;BMP280;64699;0.000;0.000;2022-10-26T00:31:06;100752.28;;;23.00
76007;BMP280;64699;0.000;0.000;2022-10-26T00:33:32;100738.25;;;22.98
76007;BMP280;64699;0.000;0.000;2022-10-26T00:35:57;100735.31;;;22.96
76007;BMP280;64699;0.000;0.000;2022-10-26T00:38:22;100736.59;;;22.95
76007;BMP280;64699;0.000;0.000;2022-10-26T00:40:48;100746.03;;;22.99
76007;BMP280;64699;0.000;0.000;2022-10-26T00:43:14;100746.56;;;22.98
76007;BMP280;64699;0.000;0.000;2022-10-26T00:45:39;100743.41;;;22.94
76007;BMP280;64699;0.000;0.000;2022-10-26T00:48:05;100744.16;;;22.94
76007;BMP280;64699;0.000;0.000;2022-10-26T00:50:38;100747.88;;;22.97
76007;BMP280;64699;0.000;0.000;2022-10-26T00:53:07;100744.38;;;22.89
76007;BMP280;64699;0.000;0.000;2022-10-26T00:55:34;100741.38;;;22.87
76007;BMP280;64699;0.000;0.000;2022-10-26T00:58:04;100752.09;;;22.90
76007;BMP280;64699;0.000;0.000;2022-10-26T01:00:30;100748.41;;;22.88
76007;BMP280;64699;0.000;0.000;2022-10-26T01:02:56;100739.75;;;22.91
76007;BMP280;64699;0.000;0.000;2022-10-26T01:05:21;100749.16;;;22.88
76007;BMP280;64699;0.000;0.000;2022-10-26T01:07:50;100746.56;;;22.83
76007;BMP280;64699;0.000;0.000;2022-10-26T01:10:15;100747.84;;;22.89
76007;BMP280;64699;0.000;0.000;2022-10-26T01:12:42;100752.69;;;22.89
76007;BMP280;64699;0.000;0.000;2022-10-26T01:15:07;100752.28;;;22.85
76007;BMP280;64699;0.000;0.000;2022-10-26T01:22:38;100743.78;;;22.83
76007;BMP280;64699;0.000;0.000;2022-10-26T01:25:26;100743.63;;;22.81
76007;BMP280;64699;0.000;0.000;2022-10-26T01:27:57;100746.75;;;22.85
76007;BMP280;64699;0.000;0.000;2022-10-26T01:31:10;100760.22;;;22.88
76007;BMP280;64699;0.000;0.000;2022-10-26T01:38:16;100764.50;;;22.82
76007;BMP280;64699;0.000;0.000;2022-10-26T01:40:48;100757.25;;;22.79
76007;BMP280;64699;0.000;0.000;2022-10-26T01:43:15;100753.78;;;22.78
76007;BMP280;64699;0.000;0.000;2022-10-26T01:45:41;100747.28;;;22.76
76007;BMP280;64699;0.000;0.000;2022-10-26T01:48:08;100755.59;;;22.76
76007;BMP280;64699;0.000;0.000;2022-10-26T01:50:35;100753.41;;;22.74
76007;BMP280;64699;0.000;0.000;2022-10-26T01:53:01;100749.69;;;22.72
76007;BMP280;64699;0.000;0.000;2022-10-26T02:00:52;100746.38;;;22.73
76007;BMP280;64699;0.000;0.000;2022-10-26T02:03:21;100749.69;;;22.72
76007;BMP280;64699;0.000;0.000;2022-10-26T02:05:58;100754.16;;;22.75
76007;BMP280;64699;0.000;0.000;2022-10-26T02:16:33;100760.97;;;22.74
76007;BMP280;64699;0.000;0.000;2022-10-26T02:19:05;100763.00;;;22.73
76007;BMP280;64699;0.000;0.000;2022-10-26T02:21:36;100773.34;;;22.73
76007;BMP280;64699;0.000;0.000;2022-10-26T02:24:02;100771.66;;;22.70
76007;BMP280;64699;0.000;0.000;2022-10-26T02:26:28;100768.38;;;22.71
76007;BMP280;64699;0.000;0.000;2022-10-26T02:28:55;100780.72;;;22.78
76007;BMP280;64699;0.000;0.000;2022-10-26T02:31:22;100780.38;;;22.74
76007;BMP280;64699;0.000;0.000;2022-10-26T02:33:48;100778.50;;;22.69
76007;BMP280;64699;0.000;0.000;2022-10-26T02:36:16;100780.91;;;22.72
76007;BMP280;64699;0.000;0.000;2022-10-26T02:38:42;100783.13;;;22.74
76007;BMP280;64699;0.000;0.000;2022-10-26T02:41:08;100780.38;;;22.74
76007;BMP280;64699;0.000;0.000;2022-10-26T02:43:35;100773.53;;;22.75
76007;BMP280;64699;0.000;0.000;2022-10-26T02:46:04;100779.63;;;22.73
76007;BMP280;64699;0.000;0.000;2022-10-26T02:48:31;100783.13;;;22.74
76007;BMP280;64699;0.000;0.000;2022-10-26T02:50:59;100779.97;;;22.70
76007;BMP280;64699;0.000;0.000;2022-10-26T02:53:31;100784.03;;;22.69
76007;BMP280;64699;0.000;0.000;2022-10-26T02:55:59;100788.47;;;22.72
76007;BMP280;64699;0.000;0.000;2022-10-26T02:58:27;100793.47;;;22.73
76007;BMP280;64699;0.000;0.000;2022-10-26T03:00:53;100795.13;;;22.76
76007;BMP280;64699;0.000;0.000;2022-10-26T03:03:18;100792.19;;;22.74
76007;BMP280;64699;0.000;0.000;2022-10-26T03:05:44;100789.22;;;22.72
76007;BMP280;64699;0.000;0.000;2022-10-26T03:08:09;100788.09;;;22.68
76007;BMP280;64699;0.000;0.000;2022-10-26T03:10:36;100793.28;;;22.71
76007;BMP280;64699;0.000;0.000;2022-10-26T03:13:03;100793.63;;;22.68
76007;BMP280;64699;0.000;0.000;2022-10-26T03:15:29;100807.47;;;22.68
76007;BMP280;64699;0.000;0.000;2022-10-26T03:17:54;100802.53;;;22.74
76007;BMP280;64699;0.000;0.000;2022-10-26T03:20:19;100796.78;;;22.72
76007;BMP280;64699;0.000;0.000;2022-10-26T03:22:45;100805.47;;;22.68
76007;BMP280;64699;0.000;0.000;2022-10-26T03:25:11;100802.69;;;22.68
76007;BMP280;64699;0.000;0.000;2022-10-26T03:27:36;100810.63;;;22.64
76007;BMP280;64699;0.000;0.000;2022-10-26T03:30:02;100805.63;;;22.63
76007;BMP280;64699;0.000;0.000;2022-10-26T03:32:30;100808.97;;;22.61
76007;BMP280;64699;0.000;0.000;2022-10-26T03:34:55;100812.09;;;22.65
76007;BMP280;64699;0.000;0.000;2022-10-26T03:37:20;100809.53;;;22.67
76007;BMP280;64699;0.000;0.000;2022-10-26T03:39:55;100817.47;;;22.63
76007;BMP280;64699;0.000;0.000;2022-10-26T03:42:20;100817.63;;;22.65
76007;BMP280;64699;0.000;0.000;2022-10-26T03:44:45;100827.22;;;22.64
76007;BMP280;64699;0.000;0.000;2022-10-26T03:47:12;100824.81;;;22.61
76007;BMP280;64699;0.000;0.000;2022-10-26T03:49:37;100823.38;;;22.67
76007;BMP280;64699;0.000;0.000;2022-10-26T03:52:02;100821.00;;;22.64
76007;BMP280;64699;0.000;0.000;2022-10-26T03:54:27;100829.66;;;22.60
76007;BMP280;64699;0.000;0.000;2022-10-26T03:56:53;100828.72;;;22.65
76007;BMP280;64699;0.000;0.000;2022-10-26T03:59:25;100835.38;;;22.62
76007;BMP280;64699;0.000;0.000;2022-10-26T04:01:53;100833.13;;;22.61
76007;BMP280;64699;0.000;0.000;2022-10-26T04:04:21;100835.56;;;22.72
76007;BMP280;64699;0.000;0.000;2022-10-26T04:06:46;100831.31;;;22.63
76007;BMP280;64699;0.000;0.000;2022-10-26T04:09:11;100833.72;;;22.67
76007;BMP280;64699;0.000;0.000;2022-10-26T04:11:36;100831.69;;;22.67
76007;BMP280;64699;0.000;0.000;2022-10-26T04:14:04;100831.13;;;22.61
76007;BMP280;64699;0.000;0.000;2022-10-26T04:16:29;100832.44;;;22.60
76007;BMP280;64699;0.000;0.000;2022-10-26T04:18:55;100837.38;;;22.62
76007;BMP280;64699;0.000;0.000;2022-10-26T04:21:20;100842.75;;;22.60
76007;BMP280;64699;0.000;0.000;2022-10-26T04:23:45;100841.63;;;22.63
76007;BMP280;64699;0.000;0.000;2022-10-26T04:26:10;100848.69;;;22.64
76007;BMP280;64699;0.000;0.000;2022-10-26T04:28:35;100845.69;;;22.62
76007;BMP280;64699;0.000;0.000;2022-10-26T04:31:01;100841.09;;;22.64
76007;BMP280;64699;0.000;0.000;2022-10-26T04:33:26;100833.53;;;22.65
76007;BMP280;64699;0.000;0.000;2022-10-26T04:35:51;100842.00;;;22.59
76007;BMP280;64699;0.000;0.000;2022-10-26T04:38:17;100849.75;;;22.61
76007;BMP280;64699;0.000;0.000;2022-10-26T04:40:45;100855.28;;;22.61
76007;BMP280;64699;0.000;0.000;2022-10-26T04:43:10;100845.16;;;22.63
76007;BMP280;64699;0.000;0.000;2022-10-26T04:45:39;100856.06;;;22.61
76007;BMP280;64699;0.000;0.000;2022-10-26T04:48:08;100852.00;;;22.62
76007;BMP280;64699;0.000;0.000;2022-10-26T04:50:37;100854.59;;;22.60
76007;BMP280;64699;0.000;0.000;2022-10-26T04:53:03;100858.25;;;22.63
76007;BMP280;64699;0.000;0.000;2022-10-26T04:55:41;100853.84;;;22.60
76007;BMP280;64699;0.000;0.000;2022-10-26T04:58:09;100859.38;;;22.60
76007;BMP280;64699;0.000;0.000;2022-10-26T05:00:35;100860.84;;;22.61
76007;BMP280;64699;0.000;0.000;2022-10-26T05:03:04;100863.06;;;22.62
76007;BMP280;64699;0.000;0.000;2022-10-26T05:05:29;100867.84;;;22.62
76007;BMP280;64699;0.000;0.000;2022-10-26T05:07:55;100868.41;;;22.53
76007;BMP280;64699;0.000;0.000;2022-10-26T05:10:23;100873.75;;;22.58
76007;BMP280;64699;0.000;0.000;2022-10-26T05:12:52;100876.53;;;22.58
76007;BMP280;64699;0.000;0.000;2022-10-26T05:15:18;100880.63;;;22.65
76007;BMP280;64699;0.000;0.000;2022-10-26T05:17:43;100876.38;;;22.64
76007;BMP280;64699;0.000;0.000;2022-10-26T05:20:08;100877.13;;;22.72
76007;BMP280;64699;0.000;0.000;2022-10-26T05:22:52;100887.81;;;22.68
76007;BMP280;64699;0.000;0.000;2022-10-26T05:25:17;100886.31;;;22.59
76007;BMP280;64699;0.000;0.000;2022-10-26T05:27:42;100893.69;;;22.57
76007;BMP280;64699;0.000;0.000;2022-10-26T05:30:08;100896.09;;;22.53
76007;BMP280;64699;0.000;0.000;2022-10-26T05:32:33;100902.38;;;22.53
76007;BMP280;64699;0.000;0.000;2022-10-26T05:34:58;100901.81;;;22.55
76007;BMP280;64699;0.000;0.000;2022-10-26T05:37:26;100902.72;;;22.50
76007;BMP280;64699;0.000;0.000;2022-10-26T05:40:00;100903.81;;;22.47
76007;BMP280;64699;0.000;0.000;2022-10-26T05:42:26;100906.56;;;22.47
76007;BMP280;64699;0.000;0.000;2022-10-26T05:44:51;100906.56;;;22.47
76007;BMP280;64699;0.000;0.000;2022-10-26T05:47:16;100911.03;;;22.50
76007;BMP280;64699;0.000;0.000;2022-10-26T05:49:41;100905.50;;;22.50
76007;BMP280;64699;0.000;0.000;2022-10-26T05:52:06;100911.75;;;22.50
76007;BMP280;64699;0.000;0.000;2022-10-26T05:54:31;100915.13;;;22.49
76007;BMP280;64699;0.000;0.000;2022-10-26T05:56:57;100925.97;;;22.47
76007;BMP280;64699;0.000;0.000;2022-10-26T05:59:22;100923.19;;;22.47
76007;BMP280;64699;0.000;0.000;2022-10-26T06:06:43;100927.25;;;22.46
76007;BMP280;64699;0.000;0.000;2022-10-26T06:09:10;100931.13;;;22.43
76007;BMP280;64699;0.000;0.000;2022-10-26T06:11:35;100926.53;;;22.45
76007;BMP280;64699;0.000;0.000;2022-10-26T06:14:01;100931.13;;;22.43
76007;BMP280;64699;0.000;0.000;2022-10-26T06:19:24;100943.47;;;22.42
76007;BMP280;64699;0.000;0.000;2022-10-26T06:21:55;100936.50;;;22.41
76007;BMP280;64699;0.000;0.000;2022-10-26T06:27:17;100936.84;;;22.38
76007;BMP280;64699;0.000;0.000;2022-10-26T06:32:39;100939.03;;;22.39
76007;BMP280;64699;0.000;0.000;2022-10-26T06:35:09;100945.13;;;22.38
76007;BMP280;64699;0.000;0.000;2022-10-26T06:37:39;100949.00;;;22.42
76007;BMP280;64699;0.000;0.000;2022-10-26T06:40:06;100949.75;;;22.42
76007;BMP280;64699;0.000;0.000;2022-10-26T06:42:32;100954.75;;;22.44
76007;BMP280;64699;0.000;0.000;2022-10-26T06:44:57;100956.03;;;22.43
76007;BMP280;64699;0.000;0.000;2022-10-26T06:47:25;100957.53;;;22.44
76007;BMP280;64699;0.000;0.000;2022-10-26T06:49:57;100959.00;;;22.45
76007;BMP280;64699;0.000;0.000;2022-10-26T06:52:32;100963.38;;;22.05
76007;BMP280;64699;0.000;0.000;2022-10-26T06:54:59;100964.03;;;22.19
76007;BMP280;64699;0.000;0.000;2022-10-26T06:57:31;100969.19;;;22.93
76007;BMP280;64699;0.000;0.000;2022-10-26T06:59:58;100973.31;;;23.21
76007;BMP280;64699;0.000;0.000;2022-10-26T07:02:24;100972.97;;;23.32
76007;BMP280;64699;0.000;0.000;2022-10-26T07:04:49;100960.41;;;23.39
76007;BMP280;64699;0.000;0.000;2022-10-26T07:07:19;100964.75;;;23.05
76007;BMP280;64699;0.000;0.000;2022-10-26T07:09:44;100967.63;;;22.77
76007;BMP280;64699;0.000;0.000;2022-10-26T07:12:09;100977.16;;;22.61
76007;BMP280;64699;0.000;0.000;2022-10-26T07:14:34;100982.91;;;22.63
76007;BMP280;64699;0.000;0.000;2022-10-26T07:17:00;100974.66;;;22.78
76007;BMP280;64699;0.000;0.000;2022-10-26T07:19:25;100974.00;;;22.92
76007;BMP280;64699;0.000;0.000;2022-10-26T07:21:50;100976.78;;;23.00
76007;BMP280;64699;0.000;0.000;2022-10-26T07:24:15;100974.03;;;23.07
76007;BMP280;64699;0.000;0.000;2022-10-26T07:26:41;100974.59;;;23.20
76007;BMP280;64699;0.000;0.000;2022-10-26T07:29:24;100976.81;;;23.29
76007;BMP280;64699;0.000;0.000;2022-10-26T07:31:50;100969.09;;;23.35
76007;BMP280;64699;0.000;0.000;2022-10-26T07:34:16;100977.78;;;23.39
76007;BMP280;64699;0.000;0.000;2022-10-26T07:36:41;100982.75;;;23.48
76007;BMP280;64699;0.000;0.000;2022-10-26T07:39:07;100984.03;;;23.47
76007;BMP280;64699;0.000;0.000;2022-10-26T07:41:32;100984.03;;;23.47
76007;BMP280;64699;0.000;0.000;2022-10-26T07:43:57;100984.41;;;23.44
76007;BMP280;64699;0.000;0.000;2022-10-26T07:49:14;100987.75;;;23.27
76007;BMP280;64699;0.000;0.000;2022-10-26T07:51:41;100995.50;;;23.21
76007;BMP280;64699;0.000;0.000;2022-10-26T07:54:06;100984.78;;;23.25
76007;BMP280;64699;0.000;0.000;2022-10-26T07:56:31;100982.19;;;23.27
76007;BMP280;64699;0.000;0.000;2022-10-26T07:58:57;100987.13;;;23.07
76007;BMP280;64699;0.000;0.000;2022-10-26T08:01:22;100990.03;;;22.94
76007;BMP280;64699;0.000;0.000;2022-10-26T08:03:50;100992.78;;;22.86
76007;BMP280;64699;0.000;0.000;2022-10-26T08:06:30;101000.16;;;22.84
76007;BMP280;64699;0.000;0.000;2022-10-26T08:08:55;101004.44;;;22.85
76007;BMP280;64699;0.000;0.000;2022-10-26T08:11:20;101005.00;;;22.91
76007;BMP280;64699;0.000;0.000;2022-10-26T08:13:55;101008.88;;;22.88
76007;BMP280;64699;0.000;0.000;2022-10-26T08:16:26;101009.25;;;22.84
76007;BMP280;64699;0.000;0.000;2022-10-26T08:18:51;101016.41;;;22.80
76007;BMP280;64699;0.000;0.000;2022-10-26T08:21:17;101018.63;;;22.74
76007;BMP280;64699;0.000;0.000;2022-10-26T08:23:42;101017.84;;;22.73
76007;BMP280;64699;0.000;0.000;2022-10-26T08:26:07;101021.19;;;22.72
76007;BMP280;64699;0.000;0.000;2022-10-26T08:28:35;101015.44;;;22.70
76007;BMP280;64699;0.000;0.000;2022-10-26T08:31:00;101019.78;;;22.86
76007;BMP280;64699;0.000;0.000;2022-10-26T08:33:26;101014.84;;;23.07
76007;BMP280;64699;0.000;0.000;2022-10-26T08:35:55;101009.53;;;23.23
76007;BMP280;64699;0.000;0.000;2022-10-26T08:38:20;101015.47;;;23.27
76007;BMP280;64699;0.000;0.000;2022-10-26T08:40:45;101018.78;;;23.26
76007;BMP280;64699;0.000;0.000;2022-10-26T08:43:25;101029.13;;;23.25
76007;BMP280;64699;0.000;0.000;2022-10-26T08:45:52;101030.22;;;23.22
76007;BMP280;64699;0.000;0.000;2022-10-26T08:48:20;101028.00;;;23.21
76007;BMP280;64699;0.000;0.000;2022-10-26T08:50:52;101027.63;;;23.17
76007;BMP280;64699;0.000;0.000;2022-10-26T08:53:20;101035.44;;;23.18
76007;BMP280;64699;0.000;0.000;2022-10-26T08:55:58;101041.69;;;23.19
76007;BMP280;64699;0.000;0.000;2022-10-26T08:58:27;101043.38;;;23.37
76007;BMP280;64699;0.000;0.000;2022-10-26T09:00:54;101042.28;;;23.47
76007;BMP280;64699;0.000;0.000;2022-10-26T09:03:19;101046.06;;;23.57
76007;BMP280;64699;0.000;0.000;2022-10-26T09:08:15;101046.34;;;23.31
76007;BMP280;64699;0.000;0.000;2022-10-26T09:10:57;101058.00;;;23.30
76007;BMP280;64699;0.000;0.000;2022-10-26T09:18:47;101059.13;;;23.34
76007;BMP280;64699;0.000;0.000;2022-10-26T09:23:58;101063.94;;;23.41
76007;BMP280;64699;0.000;0.000;2022-10-26T09:26:32;101067.59;;;23.29
76007;BMP280;64699;0.000;0.000;2022-10-26T09:29:00;101072.44;;;23.36
76007;BMP280;64699;0.000;0.000;2022-10-26T09:31:26;101073.59;;;23.63
76007;BMP280;64699;0.000;0.000;2022-10-26T09:33:52;101074.63;;;23.30
76007;BMP280;64699;0.000;0.000;2022-10-26T09:36:18;101086.00;;;23.11
76007;BMP280;64699;0.000;0.000;2022-10-26T09:41:21;101088.59;;;23.09
76007;BMP280;64699;0.000;0.000;2022-10-26T09:46:21;101099.28;;;23.06
76007;BMP280;64699;0.000;0.000;2022-10-26T09:48:53;101090.09;;;23.11
76007;BMP280;64699;0.000;0.000;2022-10-26T09:51:19;101101.72;;;23.09
76007;BMP280;64699;0.000;0.000;2022-10-26T09:53:47;101095.41;;;23.08
76007;BMP280;64699;0.000;0.000;2022-10-26T09:56:12;101093.78;;;23.13
76007;BMP280;64699;0.000;0.000;2022-10-26T09:59:00;101103.59;;;23.14
76007;BMP280;64699;0.000;0.000;2022-10-26T10:04:07;101101.00;;;23.16
76007;BMP280;64699;0.000;0.000;2022-10-26T10:06:33;101100.66;;;23.19
76007;BMP280;64699;0.000;0.000;2022-10-26T10:09:11;101097.69;;;23.17
76007;BMP280;64699;0.000;0.000;2022-10-26T10:11:40;101096.75;;;23.22
76007;BMP280;64699;0.000;0.000;2022-10-26T10:14:07;101094.00;;;23.22
76007;BMP280;64699;0.000;0.000;2022-10-26T10:16:33;101098.44;;;23.18
76007;BMP280;64699;0.000;0.000;2022-10-26T10:18:58;101098.97;;;23.16
76007;BMP280;64699;0.000;0.000;2022-10-26T10:24:26;101093.41;;;23.16
76007;BMP280;64699;0.000;0.000;2022-10-26T10:26:55;101094.63;;;23.01
76007;BMP280;64699;0.000;0.000;2022-10-26T10:29:27;101089.31;;;23.03
76007;BMP280;64699;0.000;0.000;2022-10-26T10:31:59;101094.13;;;23.09
76007;BMP280;64699;0.000;0.000;2022-10-26T10:34:25;101097.47;;;23.15
76007;BMP280;64699;0.000;0.000;2022-10-26T10:36:52;101094.72;;;23.15
76007;BMP280;64699;0.000;0.000;2022-10-26T10:39:34;101093.59;;;24.28
76007;BMP280;64699;0.000;0.000;2022-10-26T10:42:03;81699.97;;;-136.88
76007;BMP280;64699;0.000;0.000;2022-10-26T10:44:29;81699.97;;;-136.88
76007;BMP280;64699;0.000;0.000;2022-10-26T10:47:00;81699.97;;;-136.88
76007;BMP280;64699;0.000;0.000;2022-10-26T10:49:26;81699.97;;;-136.88
76007;BMP280;64699;0.000;0.000;2022-10-26T10:51:52;81699.97;;;-136.88
76007;BMP280;64699;0.000;0.000;2022-10-26T10:54:21;81699.97;;;-136.88
76007;BMP280;64699;0.000;0.000;2022-10-26T10:56:50;81699.97;;;-136.88
76007;BMP280;64699;0.000;0.000;2022-10-26T11:01:47;81699.97;;;-136.88
76007;BMP280;64699;0.000;0.000;2022-10-26T11:06:49;81699.97;;;-136.88
76007;BMP280;64699;0.000;0.000;2022-10-26T11:09:16;81699.97;;;-136.88
76007;BMP280;64699;0.000;0.000;2022-10-26T11:12:00;81699.97;;;-136.88
76007;BMP280;64699;0.000;0.000;2022-10-26T11:14:31;81699.97;;;-136.88
76007;BMP280;64699;0.000;0.000;2022-10-26T11:17:00;81699.97;;;-136.88
76007;BMP280;64699;0.000;0.000;2022-10-26T11:19:32;81699.97;;;-136.88
76007;BMP280;64699;0.000;0.000;2022-10-26T11:21:58;81699.97;;;-136.88
76007;BMP280;64699;0.000;0.000;2022-10-26T11:24:34;81699.97;;;-136.88
76007;BMP280;64699;0.000;0.000;2022-10-26T11:27:02;81699.97;;;-136.88
76007;BMP280;64699;0.000;0.000;2022-10-26T11:29:30;81699.97;;;-136.88
76007;BMP280;64699;0.000;0.000;2022-10-26T11:32:01;81699.97;;;-136.88
76007;BMP280;64699;0.000;0.000;2022-10-26T11:34:31;81699.97;;;-136.88
76007;BMP280;64699;0.000;0.000;2022-10-26T11:39:30;101104.13;;;23.70
76007;BMP280;64699;0.000;0.000;2022-10-26T11:46:54;101105.78;;;23.66
76007;BMP280;64699;0.000;0.000;2022-10-26T11:54:31;101110.97;;;23.69
76007;BMP280;64699;0.000;0.000;2022-10-26T11:56:58;101102.06;;;23.63
76007;BMP280;64699;0.000;0.000;2022-10-26T11:59:24;101101.31;;;23.55
76007;BMP280;64699;0.000;0.000;2022-10-26T12:01:51;101106.13;;;23.62
76007;BMP280;64699;0.000;0.000;2022-10-26T12:04:18;101116.47;;;23.54
76007;BMP280;64699;0.000;0.000;2022-10-26T12:06:45;101113.94;;;23.71
76007;BMP280;64699;0.000;0.000;2022-10-26T12:09:12;101107.63;;;23.63
76007;BMP280;64699;0.000;0.000;2022-10-26T12:14:14;101121.31;;;23.69
76007;BMP280;64699;0.000;0.000;2022-10-26T12:22:27;101122.22;;;23.56
76007;BMP280;64699;0.000;0.000;2022-10-26T12:25:38;101125.75;;;23.57
76007;BMP280;64699;0.000;0.000;2022-10-26T12:30:14;101120.94;;;23.57
76007;BMP280;64699;0.000;0.000;2022-10-26T12:35:30;101129.00;;;23.40
76007;BMP280;64699;0.000;0.000;2022-10-26T12:37:56;101135.38;;;23.63
76007;BMP280;64699;0.000;0.000;2022-10-26T12:45:39;101139.47;;;23.77
76007;BMP280;64699;0.000;0.000;2022-10-26T12:48:20;101133.75;;;23.75
76007;BMP280;64699;0.000;0.000;2022-10-26T12:50:45;101136.88;;;23.79
76007;BMP280;64699;0.000;0.000;2022-10-26T12:53:11;101134.09;;;23.79
76007;BMP280;64699;0.000;0.000;2022-10-26T13:03:33;101131.81;;;23.55
76007;BMP280;64699;0.000;0.000;2022-10-26T13:08:47;101130.69;;;23.51
76007;BMP280;64699;0.000;0.000;2022-10-26T13:11:20;101128.28;;;23.47
76007;BMP280;64699;0.000;0.000;2022-10-26T13:14:01;101127.19;;;23.43
76007;BMP280;64699;0.000;0.000;2022-10-26T13:16:28;101127.38;;;23.52
76007;BMP280;64699;0.000;0.000;2022-10-26T13:18:53;101126.50;;;23.72
76007;BMP280;64699;0.000;0.000;2022-10-26T13:21:19;101128.38;;;23.77
76007;BMP280;64699;0.000;0.000;2022-10-26T13:23:55;101132.81;;;23.80
76007;BMP280;64699;0.000;0.000;2022-10-26T13:26:22;101130.22;;;23.75
76007;BMP280;64699;0.000;0.000;2022-10-26T13:33:47;101129.13;;;23.85
76007;BMP280;64699;0.000;0.000;2022-10-26T13:38:40;101135.03;;;23.74
76007;BMP280;64699;0.000;0.000;2022-10-26T13:41:07;101131.69;;;23.76
76007;BMP280;64699;0.000;0.000;2022-10-26T13:43:36;101139.47;;;23.77
76007;BMP280;64699;0.000;0.000;2022-10-26T13:46:04;101137.81;;;23.74
76007;BMP280;64699;0.000;0.000;2022-10-26T13:48:32;101140.59;;;23.74
76007;BMP280;64699;0.000;0.000;2022-10-26T13:51:00;101140.59;;;23.74
76007;BMP280;64699;0.000;0.000;2022-10-26T13:56:02;101136.84;;;23.72
76007;BMP280;64699;0.000;0.000;2022-10-26T13:58:36;101144.44;;;23.71
76007;BMP280;64699;0.000;0.000;2022-10-26T14:03:32;101146.88;;;23.82
76007;BMP280;64699;0.000;0.000;2022-10-26T14:05:58;101141.31;;;23.82
76007;BMP280;64699;0.000;0.000;2022-10-26T14:08:23;101140.94;;;23.71
76007;BMP280;64699;0.000;0.000;2022-10-26T14:10:52;101140.94;;;23.71
76007;BMP280;64699;0.000;0.000;2022-10-26T14:13:20;101139.81;;;23.74
76007;BMP280;64699;0.000;0.000;2022-10-26T14:15:47;101140.59;;;23.74
76007;BMP280;64699;0.000;0.000;2022-10-26T14:18:14;101130.97;;;23.75
76007;BMP280;64699;0.000;0.000;2022-10-26T14:20:40;101134.63;;;23.63
76007;BMP280;64699;0.000;0.000;2022-10-26T14:25:52;101133.72;;;23.60
76007;BMP280;64699;0.000;0.000;2022-10-26T14:28:22;101135.72;;;23.60
76007;BMP280;64699;0.000;0.000;2022-10-26T14:30:47;101133.16;;;23.62
76007;BMP280;64699;0.000;0.000;2022-10-26T14:33:16;101149.03;;;23.61
76007;BMP280;64699;0.000;0.000;2022-10-26T14:35:41;101134.59;;;23.55
76007;BMP280;64699;0.000;0.000;2022-10-26T14:38:11;101147.56;;;23.60
76007;BMP280;64699;0.000;0.000;2022-10-26T14:40:39;101148.34;;;23.76
76007;BMP280;64699;0.000;0.000;2022-10-26T14:43:10;101148.72;;;23.87
76007;BMP280;64699;0.000;0.000;2022-10-26T14:45:41;101150.25;;;23.88
76007;BMP280;64699;0.000;0.000;2022-10-26T14:48:18;101143.56;;;23.83
76007;BMP280;64699;0.000;0.000;2022-10-26T14:50:55;101149.66;;;23.82
76007;BMP280;64699;0.000;0.000;2022-10-26T14:53:21;101152.41;;;23.67
76007;BMP280;64699;0.000;0.000;2022-10-26T14:55:50;101146.84;;;23.67
76007;BMP280;64699;0.000;0.000;2022-10-26T14:58:17;101155.03;;;23.80
76007;BMP280;64699;0.000;0.000;2022-10-26T15:00:44;101156.50;;;23.81
76007;BMP280;64699;0.000;0.000;2022-10-26T15:03:13;101156.28;;;23.79
76007;BMP280;64699;0.000;0.000;2022-10-26T15:05:39;101159.81;;;23.87
76007;BMP280;64699;0.000;0.000;2022-10-26T15:08:38;101166.66;;;23.86
76007;BMP280;64699;0.000;0.000;2022-10-26T15:10:50;101166.91;;;23.95
76007;BMP280;64699;0.000;0.000;2022-10-26T15:15:40;101173.91;;;23.89
76007;BMP280;64699;0.000;0.000;2022-10-26T15:18:06;101183.91;;;23.92
76007;BMP280;64699;0.000;0.000;2022-10-26T15:20:44;101180.16;;;23.75
76007;BMP280;64699;0.000;0.000;2022-10-26T15:23:11;101179.44;;;23.74
76007;BMP280;64699;0.000;0.000;2022-10-26T15:25:37;101178.72;;;23.96
76007;BMP280;64699;0.000;0.000;2022-10-26T15:28:09;101177.63;;;23.99
76007;BMP280;64699;0.000;0.000;2022-10-26T15:30:35;101176.88;;;23.91
76007;BMP280;64699;0.000;0.000;2022-10-26T15:33:17;101182.81;;;23.95
76007;BMP280;64699;0.000;0.000;2022-10-26T15:35:44;101186.31;;;23.88
76007;BMP280;64699;0.000;0.000;2022-10-26T15:38:09;101189.47;;;23.92
76007;BMP280;64699;0.000;0.000;2022-10-26T15:40:35;101187.97;;;23.91
76007;BMP280;64699;0.000;0.000;2022-10-26T15:43:08;101191.66;;;23.86
76007;BMP280;64699;0.000;0.000;2022-10-26T15:45:34;101191.28;;;23.82
76007;BMP280;64699;0.000;0.000;2022-10-26T15:48:12;101189.59;;;23.79
76007;BMP280;64699;0.000;0.000;2022-10-26T15:50:39;101190.56;;;23.96
76007;BMP280;64699;0.000;0.000;2022-10-26T15:53:07;101197.97;;;23.94
76007;BMP280;64699;0.000;0.000;2022-10-26T15:55:37;101197.44;;;23.88
76007;BMP280;64699;0.000;0.000;2022-10-26T15:58:02;101194.47;;;23.93
76007;BMP280;64699;0.000;0.000;2022-10-26T16:00:27;101190.94;;;23.93
76007;BMP280;64699;0.000;0.000;2022-10-26T16:02:53;101194.66;;;23.88
76007;BMP280;64699;0.000;0.000;2022-10-26T16:05:18;101199.81;;;23.84
76007;BMP280;64699;0.000;0.000;2022-10-26T16:07:44;101196.31;;;23.91
76007;BMP280;64699;0.000;0.000;2022-10-26T16:10:16;101200.91;;;23.81
76007;BMP280;64699;0.000;0.000;2022-10-26T16:12:41;101192.19;;;23.77
76007;BMP280;64699;0.000;0.000;2022-10-26T16:15:07;101211.06;;;23.71
76007;BMP280;64699;0.000;0.000;2022-10-26T16:17:33;101204.19;;;23.57
76007;BMP280;64699;0.000;0.000;2022-10-26T16:19:58;101217.47;;;23.59